createdAt,value
2017-10-20T00:01:48.511Z,71.87
2017-10-20T00:04:18.402Z,75.20
2017-10-20T00:06:47.563Z,71.60
2017-10-20T00:09:16.657Z,68.53
2017-10-20T00:11:46.514Z,67.67
2017-10-20T00:14:16.496Z,72.00
2017-10-20T00:16:46.207Z,72.67
2017-10-20T00:19:15.321Z,73.07
2017-10-20T00:21:44.602Z,76.03
2017-10-20T00:24:13.718Z,82.80
2017-10-20T00:26:42.923Z,78.47
2017-10-20T00:29:12.519Z,81.00
2017-10-20T00:31:43.430Z,82.73
2017-10-20T00:34:12.579Z,82.77
2017-10-20T00:36:43.276Z,83.40
2017-10-20T00:39:12.527Z,87.37
2017-10-20T00:41:41.654Z,88.27
2017-10-20T00:44:10.857Z,90.77
2017-10-20T00:46:39.998Z,89.07
2017-10-20T00:49:09.107Z,92.70
2017-10-20T00:51:39.149Z,99.93
2017-10-20T00:54:08.291Z,97.30
2017-10-20T00:56:38.233Z,95.27
2017-10-20T00:59:07.510Z,94.87
2017-10-20T01:01:36.656Z,103.70
2017-10-20T01:04:05.880Z,103.47
2017-10-20T01:06:35.318Z,99.27
2017-10-20T01:09:04.486Z,97.90
2017-10-20T01:11:34.412Z,88.70
2017-10-20T01:14:06.294Z,85.07
2017-10-20T01:16:36.183Z,84.07
2017-10-20T01:19:05.337Z,96.10
2017-10-20T01:21:36.801Z,97.40
2017-10-20T01:24:05.934Z,99.20
2017-10-20T01:26:35.063Z,99.40
2017-10-20T01:29:05.195Z,90.97
2017-10-20T01:31:36.823Z,89.57
2017-10-20T01:34:09.538Z,96.37
2017-10-20T01:36:38.666Z,88.77
2017-10-20T01:39:07.824Z,92.00
2017-10-20T01:41:37.286Z,92.73
2017-10-20T01:44:06.402Z,93.40
2017-10-20T01:46:35.542Z,92.83
2017-10-20T01:49:06.241Z,89.97
2017-10-20T01:51:35.354Z,91.63
2017-10-20T01:54:04.483Z,88.87
2017-10-20T01:56:34.326Z,88.67
2017-10-20T01:59:03.833Z,86.03
2017-10-20T02:01:32.981Z,90.63
2017-10-20T02:04:03.281Z,83.73
2017-10-20T02:06:32.418Z,84.17
2017-10-20T02:09:02.358Z,83.10
2017-10-20T02:11:33.477Z,77.73
2017-10-20T02:14:02.622Z,79.67
2017-10-20T02:16:31.751Z,84.17
2017-10-20T02:19:01.457Z,86.37
2017-10-20T02:21:30.599Z,85.27
2017-10-20T02:23:59.802Z,81.10
2017-10-20T02:26:29.805Z,80.83
2017-10-20T02:28:59.730Z,83.63
2017-10-20T02:31:28.887Z,79.87
2017-10-20T02:33:58.394Z,74.67
2017-10-20T02:36:27.510Z,79.10
2017-10-20T02:38:56.652Z,76.10
2017-10-20T02:41:26.628Z,74.97
2017-10-20T02:43:55.762Z,73.47
2017-10-20T02:46:24.895Z,72.27
2017-10-20T02:48:54.083Z,74.50
2017-10-20T02:51:23.237Z,79.80
2017-10-20T02:53:53.130Z,74.90
2017-10-20T02:56:23.683Z,77.97
2017-10-20T02:58:52.787Z,77.23
2017-10-20T03:01:21.903Z,76.90
2017-10-20T03:03:51.430Z,78.17
2017-10-20T03:06:21.297Z,82.53
2017-10-20T03:08:50.425Z,79.00
2017-10-20T03:11:19.965Z,78.37
2017-10-20T03:13:49.078Z,76.77
2017-10-20T03:16:18.186Z,73.13
2017-10-20T03:18:48.385Z,69.27
2017-10-20T03:21:17.472Z,72.07
2017-10-20T03:23:50.013Z,65.50
2017-10-20T03:26:19.113Z,70.00
2017-10-20T03:28:48.287Z,71.60
2017-10-20T03:31:18.265Z,74.07
2017-10-20T03:33:47.359Z,68.70
2017-10-20T03:36:19.390Z,65.00
2017-10-20T03:38:48.942Z,64.83
2017-10-20T03:41:18.051Z,65.60
2017-10-20T03:43:47.153Z,67.17
2017-10-20T03:46:16.269Z,69.00
2017-10-20T03:48:45.375Z,67.30
2017-10-20T03:51:14.834Z,69.40
2017-10-20T03:53:43.987Z,63.23
2017-10-20T03:56:13.118Z,67.43
2017-10-20T03:58:42.214Z,68.50
2017-10-20T04:03:52.624Z,67.13
2017-10-20T04:06:23.821Z,63.90
2017-10-20T04:08:53.660Z,72.10
2017-10-20T04:11:28.600Z,65.73
2017-10-20T04:13:58.896Z,63.80
2017-10-20T04:16:35.001Z,64.00
2017-10-20T04:19:11.877Z,59.90
2017-10-20T04:21:43.739Z,62.00
2017-10-20T04:24:12.854Z,70.53
2017-10-20T04:26:42.007Z,65.93
2017-10-20T04:29:11.154Z,68.53
2017-10-20T04:31:40.298Z,65.83
2017-10-20T04:34:09.425Z,66.40
2017-10-20T04:36:40.027Z,66.47
2017-10-20T04:39:09.150Z,66.03
2017-10-20T04:41:38.267Z,65.30
2017-10-20T04:44:08.423Z,64.00
2017-10-20T04:46:38.358Z,67.10
2017-10-20T04:49:07.509Z,64.23
2017-10-20T04:51:36.838Z,63.53
2017-10-20T04:54:06.047Z,65.63
2017-10-20T04:56:35.248Z,60.67
2017-10-20T04:59:04.648Z,62.70
2017-10-20T05:01:33.771Z,62.37
2017-10-20T05:04:02.923Z,60.93
2017-10-20T05:06:32.859Z,60.03
2017-10-20T05:09:02.782Z,57.17
2017-10-20T05:11:32.691Z,61.97
2017-10-20T05:14:02.297Z,58.80
2017-10-20T05:16:31.440Z,59.57
2017-10-20T05:19:00.567Z,62.83
2017-10-20T05:21:29.764Z,63.60
2017-10-20T05:23:59.683Z,66.53
2017-10-20T05:26:29.617Z,60.07
2017-10-20T05:29:00.498Z,58.47
2017-10-20T05:31:29.602Z,64.20
2017-10-20T05:33:59.482Z,59.23
2017-10-20T05:36:29.529Z,62.77
2017-10-20T05:38:58.674Z,69.77
2017-10-20T05:41:27.818Z,67.27
2017-10-20T05:43:57.042Z,64.90
2017-10-20T05:46:26.935Z,69.13
2017-10-20T05:48:56.073Z,63.63
2017-10-20T05:51:25.222Z,63.40
2017-10-20T05:53:54.315Z,60.03
2017-10-20T05:56:24.186Z,62.57
2017-10-20T05:58:53.634Z,60.83
2017-10-20T06:01:22.730Z,63.47
2017-10-20T06:03:51.825Z,60.00
2017-10-20T06:06:21.640Z,62.03
2017-10-20T06:08:50.732Z,61.50
2017-10-20T06:11:19.830Z,61.77
2017-10-20T06:13:50.231Z,65.87
2017-10-20T06:16:19.360Z,67.20
2017-10-20T06:18:49.554Z,60.73
2017-10-20T06:21:19.074Z,64.57
2017-10-20T06:23:48.227Z,61.23
2017-10-20T06:26:18.164Z,62.03
2017-10-20T06:28:47.421Z,60.63
2017-10-20T06:31:16.562Z,61.27
2017-10-20T06:33:46.498Z,58.27
2017-10-20T06:36:17.422Z,59.20
2017-10-20T06:38:46.575Z,60.20
2017-10-20T06:41:16.499Z,57.47
2017-10-20T06:43:46.504Z,53.30
2017-10-20T06:46:15.620Z,54.93
2017-10-20T06:48:44.830Z,61.23
2017-10-20T06:51:14.830Z,51.63
2017-10-20T06:53:43.984Z,52.87
2017-10-20T06:56:14.850Z,54.00
2017-10-20T06:58:44.415Z,57.30
2017-10-20T07:01:13.552Z,53.33
2017-10-20T07:03:43.456Z,53.20
2017-10-20T07:06:12.639Z,50.70
2017-10-20T07:08:41.822Z,53.17
2017-10-20T07:11:10.985Z,51.70
2017-10-20T07:13:41.049Z,49.73
2017-10-20T07:16:10.190Z,50.00
2017-10-20T07:21:51.054Z,50.40
2017-10-20T07:24:21.397Z,53.10
2017-10-20T07:26:50.558Z,47.87
2017-10-20T07:29:19.778Z,50.90
2017-10-20T07:31:50.510Z,50.97
2017-10-20T07:34:19.611Z,51.13
2017-10-20T07:36:48.719Z,49.83
2017-10-20T07:39:17.871Z,48.67
2017-10-20T07:41:47.049Z,44.67
2017-10-20T07:44:16.193Z,48.00
2017-10-20T07:46:45.659Z,44.97
2017-10-20T07:49:15.526Z,43.43
2017-10-20T07:51:44.684Z,45.90
2017-10-20T07:54:14.931Z,44.47
2017-10-20T07:56:44.839Z,41.87
2017-10-20T07:59:13.967Z,42.93
2017-10-20T08:01:43.900Z,45.10
2017-10-20T08:04:13.027Z,42.43
2017-10-20T08:06:42.147Z,43.50
2017-10-20T08:09:12.372Z,46.70
2017-10-20T08:11:41.506Z,45.43
2017-10-20T08:14:10.638Z,43.37
2017-10-20T08:16:40.176Z,40.77
2017-10-20T08:19:09.342Z,41.73
2017-10-20T08:21:38.949Z,41.70
2017-10-20T08:24:08.734Z,40.07
2017-10-20T08:26:38.697Z,40.57
2017-10-20T08:29:07.894Z,40.13
2017-10-20T08:31:38.812Z,41.10
2017-10-20T08:34:08.094Z,41.97
2017-10-20T08:36:37.348Z,39.90
2017-10-20T08:39:07.350Z,37.93
2017-10-20T08:41:36.575Z,40.97
2017-10-20T08:44:05.848Z,42.03
2017-10-20T08:46:35.872Z,38.20
2017-10-20T08:49:05.090Z,37.43
2017-10-20T08:51:34.334Z,36.30
2017-10-20T08:54:03.581Z,37.80
2017-10-20T08:56:33.653Z,36.07
2017-10-20T08:59:03.015Z,36.70
2017-10-20T09:01:32.421Z,37.90
2017-10-20T09:04:03.836Z,38.70
2017-10-20T09:06:33.111Z,36.10
2017-10-20T09:09:02.238Z,36.27
2017-10-20T09:11:32.180Z,36.93
2017-10-20T09:14:03.405Z,35.27
2017-10-20T09:16:32.558Z,35.90
2017-10-20T09:19:01.721Z,39.13
2017-10-20T09:21:31.530Z,35.30
2017-10-20T09:24:01.767Z,35.30
2017-10-20T09:26:30.974Z,33.50
2017-10-20T09:29:01.484Z,33.13
2017-10-20T09:31:30.641Z,36.43
2017-10-20T09:33:59.873Z,32.40
2017-10-20T09:36:29.910Z,34.37
2017-10-20T09:38:59.093Z,31.37
2017-10-20T09:41:29.311Z,31.30
2017-10-20T09:44:00.559Z,31.50
2017-10-20T09:46:29.866Z,31.00
2017-10-20T09:48:59.070Z,33.57
2017-10-20T09:51:29.066Z,33.93
2017-10-20T09:53:58.441Z,31.10
2017-10-20T09:56:27.694Z,30.63
2017-10-20T09:58:57.808Z,28.10
2017-10-20T10:01:26.975Z,31.93
2017-10-20T10:03:56.067Z,30.90
2017-10-20T10:06:25.274Z,29.40
2017-10-20T10:08:55.179Z,27.60
2017-10-20T10:11:25.499Z,29.13
2017-10-20T10:13:55.415Z,28.47
2017-10-20T10:16:24.518Z,30.13
2017-10-20T10:18:53.621Z,27.73
2017-10-20T10:21:23.222Z,29.50
2017-10-20T10:23:52.492Z,25.70
2017-10-20T10:26:22.441Z,26.90
2017-10-20T10:28:52.021Z,27.10
2017-10-20T10:31:21.193Z,27.67
2017-10-20T10:33:50.358Z,26.50
2017-10-20T10:36:20.318Z,27.70
2017-10-20T10:38:49.640Z,28.90
2017-10-20T10:41:19.296Z,29.27
2017-10-20T10:43:48.487Z,25.57
2017-10-20T10:46:17.667Z,28.90
2017-10-20T10:48:46.894Z,27.70
2017-10-20T10:51:16.642Z,27.00
2017-10-20T10:53:45.804Z,33.93
2017-10-20T10:56:14.953Z,32.00
2017-10-20T10:58:45.679Z,31.50
2017-10-20T11:01:14.772Z,32.77
2017-10-20T11:03:46.564Z,33.60
2017-10-20T11:09:56.299Z,29.83
2017-10-20T11:12:45.408Z,31.93
2017-10-20T11:15:14.567Z,29.93
2017-10-20T11:17:43.663Z,30.97
2017-10-20T11:20:16.289Z,31.30
2017-10-20T11:22:45.842Z,28.47
2017-10-20T11:25:15.876Z,25.70
2017-10-20T11:27:46.218Z,27.13
2017-10-20T11:30:15.378Z,28.63
2017-10-20T11:32:44.541Z,30.47
2017-10-20T11:35:14.510Z,30.70
2017-10-20T11:37:43.655Z,26.20
2017-10-20T11:40:12.747Z,28.67
2017-10-20T11:42:42.974Z,29.43
2017-10-20T11:45:12.137Z,30.27
2017-10-20T11:47:41.299Z,32.27
2017-10-20T11:50:11.527Z,30.00
2017-10-20T11:52:40.679Z,31.77
2017-10-20T11:55:09.866Z,32.90
2017-10-20T11:57:39.993Z,31.43
2017-10-20T12:00:09.145Z,30.20
2017-10-20T12:02:39.182Z,31.83
2017-10-20T12:05:09.898Z,29.27
2017-10-20T12:07:39.014Z,33.73
2017-10-20T12:10:08.190Z,32.33
2017-10-20T12:12:37.489Z,32.50
2017-10-20T12:15:06.767Z,31.80
2017-10-20T12:17:36.785Z,30.27
2017-10-20T12:20:06.931Z,31.53
2017-10-20T12:22:36.178Z,28.50
2017-10-20T12:25:05.320Z,30.03
2017-10-20T12:27:35.312Z,27.70
2017-10-20T12:30:05.852Z,30.63
2017-10-20T12:32:35.109Z,28.00
2017-10-20T12:35:05.952Z,37.23
2017-10-20T12:37:35.914Z,31.43
2017-10-20T12:40:05.065Z,38.40
2017-10-20T12:42:35.187Z,30.13
2017-10-20T12:45:05.148Z,29.00
2017-10-20T12:47:34.323Z,35.80
2017-10-20T12:50:04.959Z,33.30
2017-10-20T12:52:34.114Z,30.03
2017-10-20T12:55:03.370Z,34.47
2017-10-20T12:57:33.277Z,32.13
2017-10-20T13:00:05.142Z,32.90
2017-10-20T13:02:35.363Z,31.57
2017-10-20T13:05:04.585Z,32.67
2017-10-20T13:07:33.851Z,30.23
2017-10-20T13:10:03.481Z,31.97
2017-10-20T13:12:33.599Z,29.40
2017-10-20T13:15:03.822Z,29.40
2017-10-20T13:17:33.019Z,26.93
2017-10-20T13:20:03.251Z,25.97
2017-10-20T13:22:32.459Z,27.27
2017-10-20T13:25:01.625Z,25.70
2017-10-20T13:27:30.827Z,23.33
2017-10-20T13:30:00.073Z,19.27
2017-10-20T13:32:30.955Z,17.97
2017-10-20T13:35:00.164Z,17.73
2017-10-20T13:37:29.345Z,17.30
2017-10-20T13:39:59.357Z,18.70
2017-10-20T13:42:28.487Z,17.97
2017-10-20T13:44:57.663Z,17.53
2017-10-20T13:47:28.176Z,15.80
2017-10-20T13:49:57.375Z,16.70
2017-10-20T13:52:26.679Z,18.87
2017-10-20T13:54:57.612Z,18.67
2017-10-20T13:57:27.595Z,18.60
2017-10-20T13:59:57.154Z,19.90
2017-10-20T14:02:26.446Z,19.67
2017-10-20T14:04:55.558Z,19.70
2017-10-20T14:07:25.496Z,19.27
2017-10-20T14:09:56.201Z,19.43
2017-10-20T14:12:25.371Z,18.67
2017-10-20T14:14:54.483Z,20.90
2017-10-20T14:17:24.588Z,20.70
2017-10-20T14:19:53.685Z,19.83
2017-10-20T14:22:22.775Z,18.20
2017-10-20T14:24:53.535Z,23.07
2017-10-20T14:27:22.645Z,19.43
2017-10-20T14:29:51.751Z,20.37
2017-10-20T14:32:21.077Z,20.27
2017-10-20T14:34:50.222Z,23.60
2017-10-20T14:37:20.132Z,22.30
2017-10-20T14:39:50.824Z,21.27
2017-10-20T14:42:19.948Z,20.27
2017-10-20T14:44:49.060Z,21.10
2017-10-20T14:47:20.043Z,21.43
2017-10-20T14:49:49.166Z,21.93
2017-10-20T14:52:19.058Z,23.57
2017-10-20T14:54:48.287Z,19.77
2017-10-20T14:57:17.406Z,21.23
2017-10-20T14:59:46.495Z,21.43
2017-10-20T15:02:16.560Z,20.20
2017-10-20T15:04:45.701Z,19.10
2017-10-20T15:07:14.824Z,20.60
2017-10-20T15:09:44.014Z,20.00
2017-10-20T15:12:19.644Z,19.77
2017-10-20T15:14:49.057Z,20.40
2017-10-20T15:17:18.228Z,20.60
2017-10-20T15:19:47.363Z,20.43
2017-10-20T15:22:16.540Z,20.00
2017-10-20T15:24:46.538Z,22.13
2017-10-20T15:27:19.053Z,22.33
2017-10-20T15:29:48.210Z,21.40
2017-10-20T15:32:17.336Z,26.80
2017-10-20T15:34:46.618Z,21.40
2017-10-20T15:37:15.727Z,22.10
2017-10-20T15:39:44.846Z,21.57
2017-10-20T15:42:14.007Z,23.37
2017-10-20T15:44:43.157Z,21.23
2017-10-20T15:47:12.286Z,21.77
2017-10-20T15:49:42.217Z,24.73
2017-10-20T15:52:12.284Z,22.47
2017-10-20T15:54:41.421Z,21.90
2017-10-20T15:57:10.884Z,22.47
2017-10-20T15:59:40.029Z,22.47
2017-10-20T16:02:09.130Z,20.43
2017-10-20T16:04:38.335Z,22.10
2017-10-20T16:07:07.453Z,22.20
2017-10-20T16:09:37.454Z,21.30
2017-10-20T16:12:07.357Z,25.30
2017-10-20T16:14:36.549Z,22.73
2017-10-20T16:17:05.696Z,23.77
2017-10-20T16:19:35.736Z,24.57
2017-10-20T16:22:06.245Z,25.47
2017-10-20T16:24:35.388Z,33.17
2017-10-20T16:27:04.891Z,23.43
2017-10-20T16:29:34.816Z,23.40
2017-10-20T16:32:04.694Z,24.03
2017-10-20T16:34:33.830Z,23.77
2017-10-20T16:37:04.135Z,24.23
2017-10-20T16:39:33.976Z,24.87
2017-10-20T16:42:04.295Z,26.80
2017-10-20T16:44:35.339Z,26.43
2017-10-20T16:47:04.510Z,24.47
2017-10-20T16:49:35.253Z,26.07
2017-10-20T16:52:05.170Z,25.17
2017-10-20T16:54:34.377Z,24.67
2017-10-20T16:57:04.336Z,24.00
2017-10-20T16:59:34.218Z,26.03
2017-10-20T17:02:03.389Z,26.40
2017-10-20T17:04:33.422Z,23.43
2017-10-20T17:07:02.609Z,21.70
2017-10-20T17:09:31.936Z,21.73
2017-10-20T17:12:02.974Z,20.80
2017-10-20T17:14:32.143Z,21.50
2017-10-20T17:17:01.389Z,21.07
2017-10-20T17:19:31.023Z,21.27
2017-10-20T17:22:00.219Z,17.70
2017-10-20T17:24:31.907Z,16.13
2017-10-20T17:27:01.226Z,17.30
2017-10-20T17:29:30.504Z,17.63
2017-10-20T17:31:59.686Z,17.20
2017-10-20T17:34:28.938Z,16.67
2017-10-20T17:36:59.228Z,16.93
2017-10-20T17:39:28.962Z,16.27
2017-10-20T17:41:58.178Z,21.20
2017-10-20T17:44:27.341Z,16.87
2017-10-20T17:46:57.333Z,17.40
2017-10-20T17:49:27.306Z,15.70
2017-10-20T17:51:56.453Z,18.87
2017-10-20T17:54:27.466Z,17.20
2017-10-20T17:56:56.596Z,17.37
2017-10-20T17:59:25.787Z,19.60
2017-10-20T18:01:55.556Z,18.50
2017-10-20T18:04:24.673Z,18.37
2017-10-20T18:06:53.795Z,20.10
2017-10-20T18:09:23.717Z,21.63
2017-10-20T18:11:52.864Z,20.17
2017-10-20T18:14:22.733Z,20.27
2017-10-20T18:16:51.877Z,19.70
2017-10-20T18:19:20.979Z,21.40
2017-10-20T18:21:50.096Z,21.70
2017-10-20T18:24:20.837Z,25.37
2017-10-20T18:26:49.983Z,21.33
2017-10-20T18:29:19.093Z,24.80
2017-10-20T18:31:49.370Z,24.87
2017-10-20T18:34:18.491Z,23.00
2017-10-20T18:36:47.603Z,21.43
2017-10-20T18:39:17.318Z,25.03
2017-10-20T18:41:46.429Z,24.07
2017-10-20T18:44:16.502Z,26.43
2017-10-20T18:46:46.403Z,24.23
2017-10-20T18:49:15.510Z,22.37
2017-10-20T18:51:44.645Z,30.33
2017-10-20T18:54:14.937Z,36.07
2017-10-20T18:56:45.038Z,48.27
2017-10-20T18:59:15.898Z,23.57
2017-10-20T19:01:45.097Z,24.40
2017-10-20T19:04:14.249Z,23.13
2017-10-20T19:06:44.099Z,24.37
2017-10-20T19:09:13.246Z,23.37
2017-10-20T19:11:43.173Z,23.30
2017-10-20T19:14:13.630Z,21.43
2017-10-20T19:16:42.803Z,21.30
2017-10-20T19:19:12.723Z,21.00
2017-10-20T19:21:42.736Z,20.60
2017-10-20T19:24:12.623Z,20.17
2017-10-20T19:26:41.853Z,18.20
2017-10-20T19:29:11.291Z,18.40
2017-10-20T19:31:41.186Z,18.40
2017-10-20T19:34:10.383Z,16.37
2017-10-20T19:36:39.542Z,18.67
2017-10-20T19:39:09.449Z,17.53
2017-10-20T19:41:38.586Z,16.10
2017-10-20T19:44:09.100Z,15.33
2017-10-20T19:46:38.200Z,14.30
2017-10-20T19:49:07.339Z,15.00
2017-10-20T19:51:37.363Z,14.17
2017-10-20T19:54:08.079Z,12.90
2017-10-20T19:56:37.335Z,13.60
2017-10-20T19:59:07.115Z,16.60
2017-10-20T20:01:36.337Z,14.43
2017-10-20T20:04:05.530Z,14.30
2017-10-20T20:06:34.896Z,13.70
2017-10-20T20:09:05.095Z,11.43
2017-10-20T20:11:34.323Z,13.13
2017-10-20T20:14:04.726Z,12.63
2017-10-20T20:16:35.246Z,12.20
2017-10-20T20:19:04.440Z,11.23
2017-10-20T20:21:34.693Z,11.43
2017-10-20T20:24:03.847Z,12.00
2017-10-20T20:26:34.249Z,10.47
2017-10-20T20:29:03.555Z,9.80
2017-10-20T20:31:34.256Z,9.53
2017-10-20T20:34:03.979Z,10.17
2017-10-20T20:36:33.195Z,11.80
2017-10-20T20:39:04.024Z,11.93
2017-10-20T20:41:33.190Z,9.20
2017-10-20T20:44:03.173Z,9.20
2017-10-20T20:46:32.378Z,10.50
2017-10-20T20:49:01.769Z,9.43
2017-10-20T20:51:31.368Z,8.97
2017-10-20T20:54:00.607Z,10.50
2017-10-20T20:56:30.370Z,10.23
2017-10-20T20:59:01.946Z,9.93
2017-10-20T21:01:32.856Z,11.90
2017-10-20T21:04:02.079Z,11.87
2017-10-20T21:06:32.325Z,11.97
2017-10-20T21:09:01.528Z,11.50
2017-10-20T21:11:33.146Z,12.47
2017-10-20T21:14:02.473Z,14.03
2017-10-20T21:16:31.693Z,13.33
2017-10-20T21:19:01.048Z,12.43
2017-10-20T21:21:30.436Z,15.03
2017-10-20T21:24:00.292Z,12.60
2017-10-20T21:26:29.588Z,13.10
2017-10-20T21:28:59.578Z,13.93
2017-10-20T21:31:29.107Z,13.83
2017-10-20T21:33:58.308Z,13.70
2017-10-20T21:36:27.616Z,16.13
2017-10-20T21:38:57.733Z,14.30
2017-10-20T21:41:27.781Z,14.97
2017-10-20T21:43:56.989Z,13.17
2017-10-20T21:46:27.577Z,14.47
2017-10-20T21:48:57.807Z,15.17
2017-10-20T21:51:27.586Z,12.80
2017-10-20T21:53:56.729Z,13.80
2017-10-20T21:56:28.354Z,16.43
2017-10-20T21:59:01.573Z,13.57
2017-10-20T22:01:31.027Z,11.53
2017-10-20T22:04:01.149Z,11.50
2017-10-20T22:06:30.455Z,12.23
2017-10-20T22:09:00.617Z,13.20
2017-10-20T22:11:30.608Z,18.50
2017-10-20T22:13:59.848Z,10.70
2017-10-20T22:16:30.169Z,12.10
2017-10-20T22:18:59.350Z,13.00
2017-10-20T22:21:28.497Z,15.63
2017-10-20T22:23:57.778Z,14.70
2017-10-20T22:26:26.932Z,14.80
2017-10-20T22:28:56.038Z,14.17
2017-10-20T22:31:25.340Z,13.80
2017-10-20T22:33:54.441Z,14.70
2017-10-20T22:36:23.614Z,12.30
2017-10-20T22:38:52.858Z,13.40
2017-10-20T22:41:22.000Z,12.27
2017-10-20T22:43:52.043Z,12.60
2017-10-20T22:46:21.306Z,12.63
2017-10-20T22:48:50.417Z,13.33
2017-10-20T22:51:19.530Z,14.23
2017-10-20T22:53:49.116Z,14.13
2017-10-20T22:56:18.331Z,14.67
2017-10-20T22:58:47.485Z,16.03
2017-10-20T23:01:16.787Z,15.77
2017-10-20T23:03:46.011Z,15.53
2017-10-20T23:06:15.135Z,17.43
2017-10-20T23:08:44.843Z,16.60
2017-10-20T23:11:13.965Z,16.37
2017-10-20T23:13:43.899Z,18.77
2017-10-20T23:16:13.049Z,17.30
2017-10-20T23:18:42.146Z,18.37
2017-10-20T23:21:11.242Z,19.87
2017-10-20T23:23:42.038Z,20.00
2017-10-20T23:26:11.170Z,18.50
2017-10-20T23:28:40.301Z,19.10
2017-10-20T23:31:10.239Z,20.60
2017-10-20T23:33:40.169Z,21.20
2017-10-20T23:36:09.308Z,20.80
2017-10-20T23:38:39.828Z,20.10
2017-10-20T23:41:08.920Z,20.10
2017-10-20T23:43:38.059Z,19.70
2017-10-20T23:46:07.567Z,21.37
2017-10-20T23:48:36.702Z,20.20
2017-10-20T23:51:06.164Z,21.10
2017-10-20T23:53:35.345Z,22.17
2017-10-20T23:56:05.102Z,23.07
2017-10-20T23:58:34.931Z,21.50
